sensor_id;sensor_type;location;lat;lon;timestamp;P1;durP1;ratioP1;P2;durP2;ratioP2
23388;SDS011;11867;51.198;11.966;2024-03-29T00:04:23;1.90;;;0.70;;
23388;SDS011;11867;51.198;11.966;2024-03-29T00:09:24;2.58;;;0.77;;
23388;SDS011;11867;51.198;11.966;2024-03-29T00:14:25;2.17;;;0.90;;
23388;SDS011;11867;51.198;11.966;2024-03-29T00:19:27;2.53;;;0.90;;
23388;SDS011;11867;51.198;11.966;2024-03-29T00:24:28;2.38;;;0.90;;
23388;SDS011;11867;51.198;11.966;2024-03-29T00:29:29;4.28;;;0.95;;
23388;SDS011;11867;51.198;11.966;2024-03-29T00:34:31;1.40;;;0.75;;
23388;SDS011;11867;51.198;11.966;2024-03-29T00:39:32;1.48;;;0.73;;
23388;SDS011;11867;51.198;11.966;2024-03-29T00:44:32;2.42;;;0.43;;
23388;SDS011;11867;51.198;11.966;2024-03-29T00:49:35;2.45;;;0.60;;
23388;SDS011;11867;51.198;11.966;2024-03-29T00:54:36;2.95;;;0.50;;
23388;SDS011;11867;51.198;11.966;2024-03-29T00:59:36;1.90;;;0.63;;
23388;SDS011;11867;51.198;11.966;2024-03-29T01:04:39;2.15;;;0.60;;
23388;SDS011;11867;51.198;11.966;2024-03-29T01:09:40;1.27;;;0.38;;
23388;SDS011;11867;51.198;11.966;2024-03-29T01:14:40;2.17;;;0.60;;
23388;SDS011;11867;51.198;11.966;2024-03-29T01:19:43;3.50;;;0.43;;
23388;SDS011;11867;51.198;11.966;2024-03-29T01:24:43;4.05;;;0.82;;
23388;SDS011;11867;51.198;11.966;2024-03-29T01:29:44;1.17;;;0.45;;
23388;SDS011;11867;51.198;11.966;2024-03-29T01:34:46;1.98;;;0.50;;
23388;SDS011;11867;51.198;11.966;2024-03-29T01:39:47;1.40;;;0.55;;
23388;SDS011;11867;51.198;11.966;2024-03-29T01:44:48;4.32;;;0.80;;
23388;SDS011;11867;51.198;11.966;2024-03-29T01:49:51;1.70;;;0.70;;
23388;SDS011;11867;51.198;11.966;2024-03-29T01:54:53;2.20;;;0.70;;
23388;SDS011;11867;51.198;11.966;2024-03-29T01:59:54;3.08;;;0.73;;
23388;SDS011;11867;51.198;11.966;2024-03-29T02:04:58;2.25;;;0.70;;
23388;SDS011;11867;51.198;11.966;2024-03-29T02:10:05;3.05;;;0.90;;
23388;SDS011;11867;51.198;11.966;2024-03-29T02:15:08;3.83;;;0.80;;
23388;SDS011;11867;51.198;11.966;2024-03-29T02:20:16;0.98;;;0.50;;
23388;SDS011;11867;51.198;11.966;2024-03-29T02:25:19;1.40;;;0.60;;
23388;SDS011;11867;51.198;11.966;2024-03-29T02:30:21;3.33;;;0.80;;
23388;SDS011;11867;51.198;11.966;2024-03-29T02:35:23;2.15;;;0.60;;
23388;SDS011;11867;51.198;11.966;2024-03-29T02:40:28;1.67;;;0.77;;
23388;SDS011;11867;51.198;11.966;2024-03-29T02:45:30;2.33;;;0.60;;
23388;SDS011;11867;51.198;11.966;2024-03-29T02:50:32;1.23;;;0.60;;
23388;SDS011;11867;51.198;11.966;2024-03-29T02:55:35;5.00;;;0.82;;
23388;SDS011;11867;51.198;11.966;2024-03-29T03:00:37;3.35;;;0.65;;
23388;SDS011;11867;51.198;11.966;2024-03-29T03:05:38;4.72;;;0.60;;
23388;SDS011;11867;51.198;11.966;2024-03-29T03:10:46;2.53;;;1.05;;
23388;SDS011;11867;51.198;11.966;2024-03-29T03:16:03;1.27;;;0.50;;
23388;SDS011;11867;51.198;11.966;2024-03-29T03:21:05;3.65;;;0.77;;
23388;SDS011;11867;51.198;11.966;2024-03-29T03:26:08;2.13;;;0.90;;
23388;SDS011;11867;51.198;11.966;2024-03-29T03:31:10;3.38;;;0.98;;
23388;SDS011;11867;51.198;11.966;2024-03-29T03:36:11;1.38;;;0.82;;
23388;SDS011;11867;51.198;11.966;2024-03-29T03:41:14;4.07;;;0.90;;
23388;SDS011;11867;51.198;11.966;2024-03-29T03:46:16;1.52;;;0.68;;
23388;SDS011;11867;51.198;11.966;2024-03-29T03:51:18;4.35;;;0.68;;
23388;SDS011;11867;51.198;11.966;2024-03-29T03:56:21;2.47;;;1.00;;
23388;SDS011;11867;51.198;11.966;2024-03-29T04:01:23;1.40;;;0.60;;
23388;SDS011;11867;51.198;11.966;2024-03-29T04:06:25;2.30;;;0.85;;
23388;SDS011;11867;51.198;11.966;2024-03-29T04:11:28;1.70;;;0.90;;
23388;SDS011;11867;51.198;11.966;2024-03-29T04:16:29;4.53;;;0.90;;
23388;SDS011;11867;51.198;11.966;2024-03-29T04:21:31;2.05;;;0.60;;
23388;SDS011;11867;51.198;11.966;2024-03-29T04:26:34;1.38;;;0.47;;
23388;SDS011;11867;51.198;11.966;2024-03-29T04:31:37;1.07;;;0.50;;
23388;SDS011;11867;51.198;11.966;2024-03-29T04:36:38;1.92;;;0.57;;
23388;SDS011;11867;51.198;11.966;2024-03-29T04:41:41;1.60;;;0.77;;
23388;SDS011;11867;51.198;11.966;2024-03-29T04:46:43;5.13;;;0.80;;
23388;SDS011;11867;51.198;11.966;2024-03-29T04:51:44;2.50;;;0.80;;
23388;SDS011;11867;51.198;11.966;2024-03-29T04:56:47;1.52;;;0.60;;
23388;SDS011;11867;51.198;11.966;2024-03-29T05:01:49;1.25;;;0.60;;
23388;SDS011;11867;51.198;11.966;2024-03-29T05:06:53;1.67;;;0.70;;
23388;SDS011;11867;51.198;11.966;2024-03-29T05:11:56;5.10;;;0.85;;
23388;SDS011;11867;51.198;11.966;2024-03-29T05:16:58;1.80;;;0.80;;
23388;SDS011;11867;51.198;11.966;2024-03-29T05:21:59;2.13;;;0.75;;
23388;SDS011;11867;51.198;11.966;2024-03-29T05:27:03;1.85;;;0.73;;
23388;SDS011;11867;51.198;11.966;2024-03-29T05:32:06;2.00;;;0.90;;
23388;SDS011;11867;51.198;11.966;2024-03-29T05:37:08;1.38;;;0.80;;
23388;SDS011;11867;51.198;11.966;2024-03-29T05:42:12;1.80;;;1.05;;
23388;SDS011;11867;51.198;11.966;2024-03-29T05:47:14;2.20;;;1.30;;
23388;SDS011;11867;51.198;11.966;2024-03-29T05:52:15;2.50;;;1.02;;
23388;SDS011;11867;51.198;11.966;2024-03-29T05:57:19;4.70;;;1.10;;
23388;SDS011;11867;51.198;11.966;2024-03-29T06:02:23;1.52;;;1.10;;
23388;SDS011;11867;51.198;11.966;2024-03-29T06:07:25;1.42;;;0.93;;
23388;SDS011;11867;51.198;11.966;2024-03-29T06:12:30;1.40;;;0.60;;
23388;SDS011;11867;51.198;11.966;2024-03-29T06:17:34;2.10;;;1.02;;
23388;SDS011;11867;51.198;11.966;2024-03-29T06:22:37;2.25;;;0.93;;
23388;SDS011;11867;51.198;11.966;2024-03-29T06:27:40;1.75;;;0.90;;
23388;SDS011;11867;51.198;11.966;2024-03-29T06:37:46;2.40;;;1.00;;
23388;SDS011;11867;51.198;11.966;2024-03-29T06:42:49;3.00;;;1.00;;
23388;SDS011;11867;51.198;11.966;2024-03-29T06:47:51;1.30;;;0.70;;
23388;SDS011;11867;51.198;11.966;2024-03-29T06:52:53;1.90;;;1.15;;
23388;SDS011;11867;51.198;11.966;2024-03-29T06:57:56;1.60;;;1.00;;
23388;SDS011;11867;51.198;11.966;2024-03-29T07:02:58;2.30;;;0.80;;
23388;SDS011;11867;51.198;11.966;2024-03-29T07:08:00;1.67;;;0.80;;
23388;SDS011;11867;51.198;11.966;2024-03-29T07:13:03;1.45;;;0.73;;
23388;SDS011;11867;51.198;11.966;2024-03-29T07:18:05;1.80;;;0.82;;
23388;SDS011;11867;51.198;11.966;2024-03-29T07:23:07;1.70;;;1.02;;
23388;SDS011;11867;51.198;11.966;2024-03-29T07:28:11;3.22;;;1.00;;
23388;SDS011;11867;51.198;11.966;2024-03-29T07:33:15;1.15;;;0.80;;
23388;SDS011;11867;51.198;11.966;2024-03-29T07:38:16;2.15;;;1.00;;
23388;SDS011;11867;51.198;11.966;2024-03-29T07:43:22;0.65;;;0.50;;
23388;SDS011;11867;51.198;11.966;2024-03-29T07:48:24;1.27;;;0.88;;
23388;SDS011;11867;51.198;11.966;2024-03-29T07:53:27;1.30;;;0.60;;
23388;SDS011;11867;51.198;11.966;2024-03-29T07:58:30;1.27;;;0.77;;
23388;SDS011;11867;51.198;11.966;2024-03-29T08:03:32;1.50;;;0.77;;
23388;SDS011;11867;51.198;11.966;2024-03-29T08:08:34;0.73;;;0.70;;
23388;SDS011;11867;51.198;11.966;2024-03-29T08:13:37;1.27;;;0.65;;
23388;SDS011;11867;51.198;11.966;2024-03-29T08:18:40;0.95;;;0.40;;
23388;SDS011;11867;51.198;11.966;2024-03-29T08:23:43;1.20;;;0.63;;
23388;SDS011;11867;51.198;11.966;2024-03-29T08:28:48;1.40;;;0.83;;
23388;SDS011;11867;51.198;11.966;2024-03-29T08:33:49;0.85;;;0.52;;
23388;SDS011;11867;51.198;11.966;2024-03-29T08:38:52;2.10;;;0.73;;
23388;SDS011;11867;51.198;11.966;2024-03-29T08:43:55;1.30;;;0.40;;
23388;SDS011;11867;51.198;11.966;2024-03-29T08:48:57;1.02;;;0.57;;
23388;SDS011;11867;51.198;11.966;2024-03-29T08:53:59;0.90;;;0.60;;
23388;SDS011;11867;51.198;11.966;2024-03-29T08:59:06;1.08;;;0.55;;
23388;SDS011;11867;51.198;11.966;2024-03-29T09:04:09;1.23;;;0.60;;
23388;SDS011;11867;51.198;11.966;2024-03-29T09:09:13;1.67;;;0.90;;
23388;SDS011;11867;51.198;11.966;2024-03-29T09:14:15;1.30;;;0.80;;
23388;SDS011;11867;51.198;11.966;2024-03-29T09:19:17;1.40;;;0.85;;
23388;SDS011;11867;51.198;11.966;2024-03-29T09:24:19;1.58;;;0.70;;
23388;SDS011;11867;51.198;11.966;2024-03-29T09:29:24;3.40;;;0.60;;
23388;SDS011;11867;51.198;11.966;2024-03-29T09:34:25;1.92;;;0.70;;
23388;SDS011;11867;51.198;11.966;2024-03-29T09:39:27;1.02;;;0.70;;
23388;SDS011;11867;51.198;11.966;2024-03-29T09:44:31;1.67;;;0.93;;
23388;SDS011;11867;51.198;11.966;2024-03-29T09:49:34;1.55;;;1.00;;
23388;SDS011;11867;51.198;11.966;2024-03-29T09:54:36;1.73;;;0.70;;
23388;SDS011;11867;51.198;11.966;2024-03-29T09:59:39;2.00;;;0.70;;
23388;SDS011;11867;51.198;11.966;2024-03-29T10:04:41;1.27;;;0.70;;
23388;SDS011;11867;51.198;11.966;2024-03-29T10:09:44;1.98;;;0.80;;
23388;SDS011;11867;51.198;11.966;2024-03-29T10:14:47;0.63;;;0.50;;
23388;SDS011;11867;51.198;11.966;2024-03-29T10:19:53;0.95;;;0.50;;
23388;SDS011;11867;51.198;11.966;2024-03-29T10:24:56;1.20;;;0.70;;
23388;SDS011;11867;51.198;11.966;2024-03-29T10:30:00;1.70;;;0.80;;
23388;SDS011;11867;51.198;11.966;2024-03-29T10:40:06;3.35;;;1.40;;
23388;SDS011;11867;51.198;11.966;2024-03-29T10:45:12;1.00;;;0.52;;
23388;SDS011;11867;51.198;11.966;2024-03-29T10:50:17;1.42;;;0.63;;
23388;SDS011;11867;51.198;11.966;2024-03-29T10:55:21;0.63;;;0.55;;
23388;SDS011;11867;51.198;11.966;2024-03-29T11:00:28;0.90;;;0.60;;
23388;SDS011;11867;51.198;11.966;2024-03-29T11:05:32;1.48;;;0.50;;
23388;SDS011;11867;51.198;11.966;2024-03-29T11:10:36;1.40;;;0.60;;
23388;SDS011;11867;51.198;11.966;2024-03-29T11:15:42;1.38;;;0.60;;
23388;SDS011;11867;51.198;11.966;2024-03-29T11:20:46;3.20;;;1.27;;
23388;SDS011;11867;51.198;11.966;2024-03-29T11:25:54;1.13;;;0.70;;
23388;SDS011;11867;51.198;11.966;2024-03-29T11:31:00;0.93;;;0.60;;
23388;SDS011;11867;51.198;11.966;2024-03-29T11:36:08;1.25;;;0.60;;
23388;SDS011;11867;51.198;11.966;2024-03-29T11:41:12;1.00;;;0.47;;
23388;SDS011;11867;51.198;11.966;2024-03-29T11:46:16;1.48;;;0.47;;
23388;SDS011;11867;51.198;11.966;2024-03-29T11:51:19;1.73;;;0.50;;
23388;SDS011;11867;51.198;11.966;2024-03-29T11:56:24;1.45;;;0.50;;
23388;SDS011;11867;51.198;11.966;2024-03-29T12:01:27;2.85;;;0.60;;
23388;SDS011;11867;51.198;11.966;2024-03-29T12:06:29;1.10;;;0.65;;
23388;SDS011;11867;51.198;11.966;2024-03-29T12:11:31;2.10;;;0.55;;
23388;SDS011;11867;51.198;11.966;2024-03-29T12:16:43;2.15;;;0.50;;
23388;SDS011;11867;51.198;11.966;2024-03-29T12:21:45;1.10;;;0.63;;
23388;SDS011;11867;51.198;11.966;2024-03-29T12:26:47;4.22;;;1.02;;
23388;SDS011;11867;51.198;11.966;2024-03-29T12:31:58;1.92;;;0.63;;
23388;SDS011;11867;51.198;11.966;2024-03-29T12:37:00;1.33;;;0.88;;
23388;SDS011;11867;51.198;11.966;2024-03-29T12:42:03;0.70;;;0.40;;
23388;SDS011;11867;51.198;11.966;2024-03-29T12:47:06;0.32;;;0.30;;
23388;SDS011;11867;51.198;11.966;2024-03-29T12:52:09;0.70;;;0.40;;
23388;SDS011;11867;51.198;11.966;2024-03-29T12:57:11;0.90;;;0.50;;
23388;SDS011;11867;51.198;11.966;2024-03-29T13:02:16;0.68;;;0.40;;
23388;SDS011;11867;51.198;11.966;2024-03-29T13:07:17;1.13;;;0.40;;
23388;SDS011;11867;51.198;11.966;2024-03-29T13:12:19;0.85;;;0.40;;
23388;SDS011;11867;51.198;11.966;2024-03-29T13:17:23;0.80;;;0.50;;
23388;SDS011;11867;51.198;11.966;2024-03-29T13:22:25;1.60;;;0.70;;
23388;SDS011;11867;51.198;11.966;2024-03-29T13:27:27;0.82;;;0.40;;
23388;SDS011;11867;51.198;11.966;2024-03-29T13:32:30;1.48;;;0.50;;
23388;SDS011;11867;51.198;11.966;2024-03-29T13:42:34;0.52;;;0.45;;
23388;SDS011;11867;51.198;11.966;2024-03-29T13:47:38;1.60;;;0.47;;
23388;SDS011;11867;51.198;11.966;2024-03-29T13:52:43;1.33;;;0.60;;
23388;SDS011;11867;51.198;11.966;2024-03-29T13:57:45;0.60;;;0.60;;
23388;SDS011;11867;51.198;11.966;2024-03-29T14:02:48;1.33;;;0.50;;
23388;SDS011;11867;51.198;11.966;2024-03-29T14:07:50;0.83;;;0.47;;
23388;SDS011;11867;51.198;11.966;2024-03-29T14:12:52;0.95;;;0.50;;
23388;SDS011;11867;51.198;11.966;2024-03-29T14:17:56;0.80;;;0.52;;
23388;SDS011;11867;51.198;11.966;2024-03-29T14:23:00;1.13;;;0.65;;
23388;SDS011;11867;51.198;11.966;2024-03-29T14:28:06;0.82;;;0.63;;
23388;SDS011;11867;51.198;11.966;2024-03-29T14:33:09;1.75;;;0.50;;
23388;SDS011;11867;51.198;11.966;2024-03-29T14:38:11;0.80;;;0.50;;
23388;SDS011;11867;51.198;11.966;2024-03-29T14:43:14;1.25;;;0.60;;
23388;SDS011;11867;51.198;11.966;2024-03-29T14:48:17;0.55;;;0.52;;
23388;SDS011;11867;51.198;11.966;2024-03-29T14:53:19;1.40;;;0.83;;
23388;SDS011;11867;51.198;11.966;2024-03-29T14:58:20;1.15;;;0.70;;
23388;SDS011;11867;51.198;11.966;2024-03-29T15:03:23;0.30;;;0.30;;
23388;SDS011;11867;51.198;11.966;2024-03-29T15:08:25;0.80;;;0.50;;
23388;SDS011;11867;51.198;11.966;2024-03-29T15:13:27;0.47;;;0.43;;
23388;SDS011;11867;51.198;11.966;2024-03-29T15:18:30;0.60;;;0.45;;
23388;SDS011;11867;51.198;11.966;2024-03-29T15:23:32;1.10;;;0.63;;
23388;SDS011;11867;51.198;11.966;2024-03-29T15:28:35;1.40;;;0.73;;
23388;SDS011;11867;51.198;11.966;2024-03-29T15:33:56;1.00;;;0.50;;
23388;SDS011;11867;51.198;11.966;2024-03-29T15:38:58;1.25;;;0.80;;
23388;SDS011;11867;51.198;11.966;2024-03-29T15:44:06;1.10;;;0.50;;
23388;SDS011;11867;51.198;11.966;2024-03-29T15:49:16;0.63;;;0.50;;
23388;SDS011;11867;51.198;11.966;2024-03-29T15:54:20;0.50;;;0.40;;
23388;SDS011;11867;51.198;11.966;2024-03-29T15:59:23;0.28;;;0.28;;
23388;SDS011;11867;51.198;11.966;2024-03-29T16:04:26;0.50;;;0.40;;
23388;SDS011;11867;51.198;11.966;2024-03-29T16:09:29;0.50;;;0.50;;
23388;SDS011;11867;51.198;11.966;2024-03-29T16:14:30;1.10;;;0.47;;
23388;SDS011;11867;51.198;11.966;2024-03-29T16:19:33;1.02;;;0.60;;
23388;SDS011;11867;51.198;11.966;2024-03-29T16:24:38;1.05;;;0.80;;
23388;SDS011;11867;51.198;11.966;2024-03-29T16:29:40;1.45;;;0.90;;
23388;SDS011;11867;51.198;11.966;2024-03-29T16:34:45;0.80;;;0.80;;
23388;SDS011;11867;51.198;11.966;2024-03-29T16:39:47;5.80;;;2.63;;
23388;SDS011;11867;51.198;11.966;2024-03-29T16:44:52;5.35;;;2.63;;
23388;SDS011;11867;51.198;11.966;2024-03-29T16:49:55;1.20;;;0.70;;
23388;SDS011;11867;51.198;11.966;2024-03-29T16:54:57;24.23;;;10.70;;
23388;SDS011;11867;51.198;11.966;2024-03-29T16:59:58;13.07;;;5.25;;
23388;SDS011;11867;51.198;11.966;2024-03-29T17:05:01;15.18;;;6.82;;
23388;SDS011;11867;51.198;11.966;2024-03-29T17:10:04;4.30;;;1.85;;
23388;SDS011;11867;51.198;11.966;2024-03-29T17:15:09;2.13;;;1.13;;
23388;SDS011;11867;51.198;11.966;2024-03-29T17:20:12;2.35;;;1.10;;
23388;SDS011;11867;51.198;11.966;2024-03-29T17:25:14;1.15;;;1.05;;
23388;SDS011;11867;51.198;11.966;2024-03-29T17:30:16;7.22;;;5.10;;
23388;SDS011;11867;51.198;11.966;2024-03-29T17:35:19;2.17;;;1.30;;
23388;SDS011;11867;51.198;11.966;2024-03-29T17:40:21;1.45;;;1.00;;
23388;SDS011;11867;51.198;11.966;2024-03-29T17:45:22;1.58;;;0.93;;
23388;SDS011;11867;51.198;11.966;2024-03-29T17:50:28;14.82;;;8.98;;
23388;SDS011;11867;51.198;11.966;2024-03-29T17:55:30;1.33;;;1.20;;
23388;SDS011;11867;51.198;11.966;2024-03-29T18:00:32;4.20;;;3.40;;
23388;SDS011;11867;51.198;11.966;2024-03-29T18:05:35;6.10;;;4.03;;
23388;SDS011;11867;51.198;11.966;2024-03-29T18:10:37;2.38;;;1.75;;
23388;SDS011;11867;51.198;11.966;2024-03-29T18:15:39;1.08;;;0.98;;
23388;SDS011;11867;51.198;11.966;2024-03-29T18:20:46;1.20;;;1.10;;
23388;SDS011;11867;51.198;11.966;2024-03-29T18:25:48;1.93;;;0.83;;
23388;SDS011;11867;51.198;11.966;2024-03-29T18:30:49;2.83;;;0.63;;
23388;SDS011;11867;51.198;11.966;2024-03-29T18:35:52;1.90;;;1.10;;
23388;SDS011;11867;51.198;11.966;2024-03-29T18:40:58;2.72;;;1.33;;
23388;SDS011;11867;51.198;11.966;2024-03-29T18:46:02;1.58;;;1.25;;
23388;SDS011;11867;51.198;11.966;2024-03-29T18:51:05;2.60;;;1.65;;
23388;SDS011;11867;51.198;11.966;2024-03-29T18:56:08;3.93;;;2.00;;
23388;SDS011;11867;51.198;11.966;2024-03-29T19:01:09;3.08;;;2.58;;
23388;SDS011;11867;51.198;11.966;2024-03-29T19:06:14;5.18;;;2.45;;
23388;SDS011;11867;51.198;11.966;2024-03-29T19:11:17;5.57;;;3.35;;
23388;SDS011;11867;51.198;11.966;2024-03-29T19:16:23;3.88;;;3.13;;
23388;SDS011;11867;51.198;11.966;2024-03-29T19:21:26;6.05;;;3.15;;
23388;SDS011;11867;51.198;11.966;2024-03-29T19:26:28;4.97;;;3.05;;
23388;SDS011;11867;51.198;11.966;2024-03-29T19:31:32;4.05;;;2.58;;
23388;SDS011;11867;51.198;11.966;2024-03-29T19:36:35;5.70;;;4.53;;
23388;SDS011;11867;51.198;11.966;2024-03-29T19:41:37;5.38;;;3.33;;
23388;SDS011;11867;51.198;11.966;2024-03-29T19:46:39;4.35;;;3.00;;
23388;SDS011;11867;51.198;11.966;2024-03-29T19:51:42;3.92;;;3.22;;
23388;SDS011;11867;51.198;11.966;2024-03-29T19:56:44;7.00;;;3.80;;
23388;SDS011;11867;51.198;11.966;2024-03-29T20:01:46;5.30;;;2.97;;
23388;SDS011;11867;51.198;11.966;2024-03-29T20:06:49;5.43;;;3.60;;
23388;SDS011;11867;51.198;11.966;2024-03-29T20:11:50;6.53;;;3.65;;
23388;SDS011;11867;51.198;11.966;2024-03-29T20:16:52;3.95;;;3.58;;
23388;SDS011;11867;51.198;11.966;2024-03-29T20:21:57;4.97;;;4.18;;
23388;SDS011;11867;51.198;11.966;2024-03-29T20:26:59;7.53;;;4.97;;
23388;SDS011;11867;51.198;11.966;2024-03-29T20:32:02;5.13;;;4.15;;
23388;SDS011;11867;51.198;11.966;2024-03-29T20:37:07;5.60;;;4.13;;
23388;SDS011;11867;51.198;11.966;2024-03-29T20:42:12;3.40;;;2.70;;
23388;SDS011;11867;51.198;11.966;2024-03-29T20:47:14;5.95;;;3.88;;
23388;SDS011;11867;51.198;11.966;2024-03-29T20:52:17;7.40;;;6.38;;
23388;SDS011;11867;51.198;11.966;2024-03-29T20:57:22;5.68;;;3.92;;
23388;SDS011;11867;51.198;11.966;2024-03-29T21:02:25;5.03;;;3.75;;
23388;SDS011;11867;51.198;11.966;2024-03-29T21:07:45;5.50;;;3.53;;
23388;SDS011;11867;51.198;11.966;2024-03-29T21:12:47;5.95;;;3.40;;
23388;SDS011;11867;51.198;11.966;2024-03-29T21:17:51;6.07;;;3.47;;
23388;SDS011;11867;51.198;11.966;2024-03-29T21:22:56;5.88;;;3.97;;
23388;SDS011;11867;51.198;11.966;2024-03-29T21:27:59;7.22;;;3.65;;
23388;SDS011;11867;51.198;11.966;2024-03-29T21:33:03;6.72;;;3.33;;
23388;SDS011;11867;51.198;11.966;2024-03-29T21:38:07;8.38;;;4.57;;
23388;SDS011;11867;51.198;11.966;2024-03-29T21:43:08;7.70;;;3.95;;
23388;SDS011;11867;51.198;11.966;2024-03-29T21:48:12;5.40;;;3.83;;
23388;SDS011;11867;51.198;11.966;2024-03-29T21:53:15;5.45;;;3.80;;
23388;SDS011;11867;51.198;11.966;2024-03-29T21:58:17;4.88;;;4.15;;
23388;SDS011;11867;51.198;11.966;2024-03-29T22:03:19;7.88;;;5.00;;
23388;SDS011;11867;51.198;11.966;2024-03-29T22:08:24;7.93;;;4.60;;
23388;SDS011;11867;51.198;11.966;2024-03-29T22:13:26;6.65;;;4.53;;
23388;SDS011;11867;51.198;11.966;2024-03-29T22:18:28;5.85;;;4.90;;
23388;SDS011;11867;51.198;11.966;2024-03-29T22:23:31;6.53;;;5.13;;
23388;SDS011;11867;51.198;11.966;2024-03-29T22:28:36;8.45;;;5.60;;
23388;SDS011;11867;51.198;11.966;2024-03-29T22:33:37;8.25;;;6.00;;
23388;SDS011;11867;51.198;11.966;2024-03-29T22:38:40;8.10;;;5.95;;
23388;SDS011;11867;51.198;11.966;2024-03-29T22:43:42;6.93;;;6.25;;
23388;SDS011;11867;51.198;11.966;2024-03-29T22:48:44;8.00;;;6.63;;
23388;SDS011;11867;51.198;11.966;2024-03-29T22:53:47;8.75;;;6.78;;
23388;SDS011;11867;51.198;11.966;2024-03-29T22:58:48;8.85;;;6.43;;
23388;SDS011;11867;51.198;11.966;2024-03-29T23:03:50;10.25;;;5.93;;
23388;SDS011;11867;51.198;11.966;2024-03-29T23:08:53;9.95;;;6.15;;
23388;SDS011;11867;51.198;11.966;2024-03-29T23:13:57;8.98;;;6.53;;
23388;SDS011;11867;51.198;11.966;2024-03-29T23:18:59;8.07;;;6.38;;
23388;SDS011;11867;51.198;11.966;2024-03-29T23:24:02;9.85;;;5.70;;
23388;SDS011;11867;51.198;11.966;2024-03-29T23:29:05;7.00;;;5.65;;
23388;SDS011;11867;51.198;11.966;2024-03-29T23:34:07;7.95;;;5.60;;
23388;SDS011;11867;51.198;11.966;2024-03-29T23:39:13;6.28;;;5.25;;
23388;SDS011;11867;51.198;11.966;2024-03-29T23:44:15;7.25;;;5.40;;
23388;SDS011;11867;51.198;11.966;2024-03-29T23:49:17;9.43;;;6.60;;
23388;SDS011;11867;51.198;11.966;2024-03-29T23:54:20;5.97;;;5.22;;
23388;SDS011;11867;51.198;11.966;2024-03-29T23:59:21;6.30;;;4.72;;
